sensor_id;sensor_type;location;lat;lon;timestamp;P1;durP1;ratioP1;P2;durP2;ratioP2
36379;SDS011;22411;53.016;18.632;2022-08-19T00:00:13;13.30;;;11.70;;
36379;SDS011;22411;53.016;18.632;2022-08-19T00:02:59;14.68;;;11.93;;
36379;SDS011;22411;53.016;18.632;2022-08-19T00:05:25;13.93;;;12.23;;
36379;SDS011;22411;53.016;18.632;2022-08-19T00:07:51;13.77;;;11.38;;
36379;SDS011;22411;53.016;18.632;2022-08-19T00:10:17;13.32;;;11.98;;
36379;SDS011;22411;53.016;18.632;2022-08-19T00:12:44;12.52;;;11.25;;
36379;SDS011;22411;53.016;18.632;2022-08-19T00:15:11;13.02;;;11.88;;
36379;SDS011;22411;53.016;18.632;2022-08-19T00:17:39;13.98;;;11.68;;
36379;SDS011;22411;53.016;18.632;2022-08-19T00:20:08;12.45;;;10.52;;
36379;SDS011;22411;53.016;18.632;2022-08-19T00:22:37;12.40;;;11.23;;
36379;SDS011;22411;53.016;18.632;2022-08-19T00:25:04;12.75;;;11.55;;
36379;SDS011;22411;53.016;18.632;2022-08-19T00:27:31;13.18;;;11.90;;
36379;SDS011;22411;53.016;18.632;2022-08-19T00:29:57;13.98;;;11.68;;
36379;SDS011;22411;53.016;18.632;2022-08-19T00:32:24;14.52;;;11.20;;
36379;SDS011;22411;53.016;18.632;2022-08-19T00:34:51;17.20;;;11.98;;
36379;SDS011;22411;53.016;18.632;2022-08-19T00:37:19;13.40;;;12.07;;
36379;SDS011;22411;53.016;18.632;2022-08-19T00:39:51;13.63;;;12.30;;
36379;SDS011;22411;53.016;18.632;2022-08-19T00:42:18;13.02;;;11.77;;
36379;SDS011;22411;53.016;18.632;2022-08-19T00:44:46;13.32;;;11.45;;
36379;SDS011;22411;53.016;18.632;2022-08-19T00:47:12;12.63;;;11.45;;
36379;SDS011;22411;53.016;18.632;2022-08-19T00:49:48;13.02;;;11.68;;
36379;SDS011;22411;53.016;18.632;2022-08-19T00:52:19;15.18;;;13.13;;
36379;SDS011;22411;53.016;18.632;2022-08-19T00:54:54;13.68;;;12.38;;
36379;SDS011;22411;53.016;18.632;2022-08-19T00:57:22;14.88;;;12.35;;
36379;SDS011;22411;53.016;18.632;2022-08-19T00:59:54;14.25;;;12.77;;
36379;SDS011;22411;53.016;18.632;2022-08-19T01:02:22;14.27;;;12.90;;
36379;SDS011;22411;53.016;18.632;2022-08-19T01:04:49;13.35;;;11.95;;
36379;SDS011;22411;53.016;18.632;2022-08-19T01:07:15;12.75;;;11.70;;
36379;SDS011;22411;53.016;18.632;2022-08-19T01:09:42;13.07;;;11.85;;
36379;SDS011;22411;53.016;18.632;2022-08-19T01:12:08;12.75;;;11.45;;
36379;SDS011;22411;53.016;18.632;2022-08-19T01:14:35;13.95;;;12.55;;
36379;SDS011;22411;53.016;18.632;2022-08-19T01:17:04;15.68;;;12.35;;
36379;SDS011;22411;53.016;18.632;2022-08-19T01:19:33;14.27;;;12.88;;
36379;SDS011;22411;53.016;18.632;2022-08-19T01:22:03;12.82;;;11.73;;
36379;SDS011;22411;53.016;18.632;2022-08-19T01:24:36;17.83;;;13.32;;
36379;SDS011;22411;53.016;18.632;2022-08-19T01:27:03;13.68;;;12.27;;
36379;SDS011;22411;53.016;18.632;2022-08-19T01:29:31;14.38;;;12.68;;
36379;SDS011;22411;53.016;18.632;2022-08-19T01:31:57;13.93;;;12.43;;
36379;SDS011;22411;53.016;18.632;2022-08-19T01:34:25;14.30;;;12.75;;
36379;SDS011;22411;53.016;18.632;2022-08-19T01:36:51;20.13;;;12.60;;
36379;SDS011;22411;53.016;18.632;2022-08-19T01:39:19;14.07;;;12.55;;
36379;SDS011;22411;53.016;18.632;2022-08-19T01:44:14;13.73;;;12.18;;
36379;SDS011;22411;53.016;18.632;2022-08-19T01:46:41;14.02;;;12.63;;
36379;SDS011;22411;53.016;18.632;2022-08-19T01:49:09;13.77;;;12.50;;
36379;SDS011;22411;53.016;18.632;2022-08-19T01:51:35;13.75;;;12.30;;
36379;SDS011;22411;53.016;18.632;2022-08-19T01:54:02;14.95;;;13.55;;
36379;SDS011;22411;53.016;18.632;2022-08-19T01:56:28;14.10;;;12.70;;
36379;SDS011;22411;53.016;18.632;2022-08-19T01:58:58;14.70;;;13.25;;
36379;SDS011;22411;53.016;18.632;2022-08-19T02:01:27;15.50;;;14.10;;
36379;SDS011;22411;53.016;18.632;2022-08-19T02:04:00;14.77;;;13.40;;
36379;SDS011;22411;53.016;18.632;2022-08-19T02:06:26;14.73;;;13.23;;
36379;SDS011;22411;53.016;18.632;2022-08-19T02:08:53;15.93;;;14.07;;
36379;SDS011;22411;53.016;18.632;2022-08-19T02:11:21;14.52;;;12.98;;
36379;SDS011;22411;53.016;18.632;2022-08-19T02:13:49;15.38;;;13.88;;
36379;SDS011;22411;53.016;18.632;2022-08-19T02:16:16;15.20;;;13.65;;
36379;SDS011;22411;53.016;18.632;2022-08-19T02:18:43;16.30;;;14.43;;
36379;SDS011;22411;53.016;18.632;2022-08-19T02:21:09;14.07;;;12.75;;
36379;SDS011;22411;53.016;18.632;2022-08-19T02:23:36;16.27;;;14.57;;
36379;SDS011;22411;53.016;18.632;2022-08-19T02:26:02;16.35;;;14.90;;
36379;SDS011;22411;53.016;18.632;2022-08-19T02:28:27;14.55;;;13.05;;
36379;SDS011;22411;53.016;18.632;2022-08-19T02:30:53;15.85;;;14.27;;
36379;SDS011;22411;53.016;18.632;2022-08-19T02:33:19;15.02;;;13.65;;
36379;SDS011;22411;53.016;18.632;2022-08-19T02:35:45;15.98;;;14.48;;
36379;SDS011;22411;53.016;18.632;2022-08-19T02:38:12;15.48;;;13.68;;
36379;SDS011;22411;53.016;18.632;2022-08-19T02:40:51;15.30;;;13.70;;
36379;SDS011;22411;53.016;18.632;2022-08-19T02:43:19;16.15;;;14.13;;
36379;SDS011;22411;53.016;18.632;2022-08-19T02:45:45;15.40;;;14.07;;
36379;SDS011;22411;53.016;18.632;2022-08-19T02:48:15;15.63;;;13.90;;
36379;SDS011;22411;53.016;18.632;2022-08-19T02:50:43;16.48;;;14.93;;
36379;SDS011;22411;53.016;18.632;2022-08-19T02:53:09;16.05;;;14.55;;
36379;SDS011;22411;53.016;18.632;2022-08-19T02:55:34;15.82;;;14.27;;
36379;SDS011;22411;53.016;18.632;2022-08-19T02:58:01;16.52;;;15.00;;
36379;SDS011;22411;53.016;18.632;2022-08-19T03:00:26;16.42;;;14.70;;
36379;SDS011;22411;53.016;18.632;2022-08-19T03:02:53;17.27;;;15.48;;
36379;SDS011;22411;53.016;18.632;2022-08-19T03:05:19;15.88;;;14.38;;
36379;SDS011;22411;53.016;18.632;2022-08-19T03:07:45;15.85;;;14.38;;
36379;SDS011;22411;53.016;18.632;2022-08-19T03:10:12;16.73;;;14.50;;
36379;SDS011;22411;53.016;18.632;2022-08-19T03:12:38;19.02;;;14.93;;
36379;SDS011;22411;53.016;18.632;2022-08-19T03:15:05;15.02;;;13.40;;
36379;SDS011;22411;53.016;18.632;2022-08-19T03:17:33;16.65;;;14.63;;
36379;SDS011;22411;53.016;18.632;2022-08-19T03:20:00;16.25;;;14.85;;
36379;SDS011;22411;53.016;18.632;2022-08-19T03:22:25;15.10;;;13.70;;
36379;SDS011;22411;53.016;18.632;2022-08-19T03:24:52;15.77;;;14.27;;
36379;SDS011;22411;53.016;18.632;2022-08-19T03:27:19;15.45;;;13.85;;
36379;SDS011;22411;53.016;18.632;2022-08-19T03:29:44;15.82;;;14.10;;
36379;SDS011;22411;53.016;18.632;2022-08-19T03:32:11;15.43;;;13.88;;
36379;SDS011;22411;53.016;18.632;2022-08-19T03:34:37;15.43;;;13.73;;
36379;SDS011;22411;53.016;18.632;2022-08-19T03:37:07;17.45;;;13.93;;
36379;SDS011;22411;53.016;18.632;2022-08-19T03:39:36;15.85;;;14.23;;
36379;SDS011;22411;53.016;18.632;2022-08-19T03:42:03;16.27;;;14.77;;
36379;SDS011;22411;53.016;18.632;2022-08-19T03:44:29;14.70;;;13.27;;
36379;SDS011;22411;53.016;18.632;2022-08-19T03:46:56;15.88;;;14.27;;
36379;SDS011;22411;53.016;18.632;2022-08-19T03:49:25;16.05;;;14.50;;
36379;SDS011;22411;53.016;18.632;2022-08-19T03:51:53;16.15;;;13.73;;
36379;SDS011;22411;53.016;18.632;2022-08-19T03:54:20;15.50;;;14.10;;
36379;SDS011;22411;53.016;18.632;2022-08-19T03:56:48;16.95;;;13.88;;
36379;SDS011;22411;53.016;18.632;2022-08-19T03:59:17;14.70;;;13.20;;
36379;SDS011;22411;53.016;18.632;2022-08-19T04:01:46;15.32;;;13.85;;
36379;SDS011;22411;53.016;18.632;2022-08-19T04:04:12;17.58;;;14.93;;
36379;SDS011;22411;53.016;18.632;2022-08-19T04:06:38;15.95;;;14.32;;
36379;SDS011;22411;53.016;18.632;2022-08-19T04:09:06;15.68;;;14.10;;
36379;SDS011;22411;53.016;18.632;2022-08-19T04:11:36;15.93;;;14.38;;
36379;SDS011;22411;53.016;18.632;2022-08-19T04:14:08;15.70;;;14.15;;
36379;SDS011;22411;53.016;18.632;2022-08-19T04:16:35;16.73;;;14.07;;
36379;SDS011;22411;53.016;18.632;2022-08-19T04:19:03;15.48;;;13.88;;
36379;SDS011;22411;53.016;18.632;2022-08-19T04:21:30;15.20;;;13.63;;
36379;SDS011;22411;53.016;18.632;2022-08-19T04:23:56;15.00;;;13.57;;
36379;SDS011;22411;53.016;18.632;2022-08-19T04:26:24;15.43;;;13.82;;
36379;SDS011;22411;53.016;18.632;2022-08-19T04:28:52;15.73;;;13.50;;
36379;SDS011;22411;53.016;18.632;2022-08-19T04:31:20;16.50;;;14.85;;
36379;SDS011;22411;53.016;18.632;2022-08-19T04:33:47;16.08;;;14.43;;
36379;SDS011;22411;53.016;18.632;2022-08-19T04:36:17;16.42;;;13.85;;
36379;SDS011;22411;53.016;18.632;2022-08-19T04:38:49;14.25;;;12.90;;
36379;SDS011;22411;53.016;18.632;2022-08-19T04:41:18;16.83;;;13.35;;
36379;SDS011;22411;53.016;18.632;2022-08-19T04:44:02;14.80;;;13.25;;
36379;SDS011;22411;53.016;18.632;2022-08-19T04:46:29;15.52;;;12.98;;
36379;SDS011;22411;53.016;18.632;2022-08-19T04:48:57;16.45;;;12.65;;
36379;SDS011;22411;53.016;18.632;2022-08-19T04:51:27;15.30;;;13.80;;
36379;SDS011;22411;53.016;18.632;2022-08-19T04:53:53;14.30;;;13.00;;
36379;SDS011;22411;53.016;18.632;2022-08-19T04:56:19;16.23;;;13.63;;
36379;SDS011;22411;53.016;18.632;2022-08-19T04:58:48;15.05;;;12.65;;
36379;SDS011;22411;53.016;18.632;2022-08-19T05:01:17;14.02;;;12.65;;
36379;SDS011;22411;53.016;18.632;2022-08-19T05:03:46;14.23;;;12.77;;
36379;SDS011;22411;53.016;18.632;2022-08-19T05:06:13;15.32;;;13.65;;
36379;SDS011;22411;53.016;18.632;2022-08-19T05:08:40;13.85;;;12.57;;
36379;SDS011;22411;53.016;18.632;2022-08-19T05:11:10;14.85;;;12.90;;
36379;SDS011;22411;53.016;18.632;2022-08-19T05:13:41;14.30;;;12.70;;
36379;SDS011;22411;53.016;18.632;2022-08-19T05:16:08;14.15;;;12.65;;
36379;SDS011;22411;53.016;18.632;2022-08-19T05:18:37;13.38;;;12.07;;
36379;SDS011;22411;53.016;18.632;2022-08-19T05:21:23;14.45;;;12.95;;
36379;SDS011;22411;53.016;18.632;2022-08-19T05:24:07;13.98;;;12.60;;
36379;SDS011;22411;53.016;18.632;2022-08-19T05:26:38;13.98;;;12.48;;
36379;SDS011;22411;53.016;18.632;2022-08-19T05:29:06;14.45;;;12.98;;
36379;SDS011;22411;53.016;18.632;2022-08-19T05:31:36;12.73;;;11.52;;
36379;SDS011;22411;53.016;18.632;2022-08-19T05:34:04;13.40;;;12.00;;
36379;SDS011;22411;53.016;18.632;2022-08-19T05:36:33;13.15;;;11.95;;
36379;SDS011;22411;53.016;18.632;2022-08-19T05:39:04;14.45;;;12.93;;
36379;SDS011;22411;53.016;18.632;2022-08-19T05:41:30;13.00;;;11.15;;
36379;SDS011;22411;53.016;18.632;2022-08-19T05:43:56;13.23;;;10.18;;
36379;SDS011;22411;53.016;18.632;2022-08-19T05:46:24;12.98;;;11.43;;
36379;SDS011;22411;53.016;18.632;2022-08-19T05:48:50;13.57;;;10.70;;
36379;SDS011;22411;53.016;18.632;2022-08-19T05:51:16;11.60;;;10.48;;
36379;SDS011;22411;53.016;18.632;2022-08-19T05:53:42;11.50;;;10.10;;
36379;SDS011;22411;53.016;18.632;2022-08-19T05:56:11;11.57;;;10.45;;
36379;SDS011;22411;53.016;18.632;2022-08-19T05:58:41;12.60;;;11.40;;
36379;SDS011;22411;53.016;18.632;2022-08-19T06:01:17;12.30;;;11.00;;
36379;SDS011;22411;53.016;18.632;2022-08-19T06:03:43;12.13;;;10.98;;
36379;SDS011;22411;53.016;18.632;2022-08-19T06:06:11;11.45;;;10.27;;
36379;SDS011;22411;53.016;18.632;2022-08-19T06:08:41;12.05;;;10.82;;
36379;SDS011;22411;53.016;18.632;2022-08-19T06:11:15;12.13;;;10.65;;
36379;SDS011;22411;53.016;18.632;2022-08-19T06:13:44;14.30;;;11.05;;
36379;SDS011;22411;53.016;18.632;2022-08-19T06:16:14;13.18;;;9.82;;
36379;SDS011;22411;53.016;18.632;2022-08-19T06:18:53;13.98;;;10.40;;
36379;SDS011;22411;53.016;18.632;2022-08-19T06:21:20;15.38;;;10.20;;
36379;SDS011;22411;53.016;18.632;2022-08-19T06:23:48;9.18;;;8.32;;
36379;SDS011;22411;53.016;18.632;2022-08-19T06:26:16;11.43;;;9.70;;
36379;SDS011;22411;53.016;18.632;2022-08-19T06:28:43;11.60;;;9.55;;
36379;SDS011;22411;53.016;18.632;2022-08-19T06:31:13;10.45;;;9.25;;
36379;SDS011;22411;53.016;18.632;2022-08-19T06:33:42;10.20;;;9.27;;
36379;SDS011;22411;53.016;18.632;2022-08-19T06:36:23;10.15;;;9.20;;
36379;SDS011;22411;53.016;18.632;2022-08-19T06:38:57;9.55;;;8.68;;
36379;SDS011;22411;53.016;18.632;2022-08-19T06:41:24;13.15;;;9.48;;
36379;SDS011;22411;53.016;18.632;2022-08-19T06:43:51;10.07;;;8.93;;
36379;SDS011;22411;53.016;18.632;2022-08-19T06:46:18;9.95;;;8.85;;
36379;SDS011;22411;53.016;18.632;2022-08-19T06:48:45;9.20;;;8.38;;
36379;SDS011;22411;53.016;18.632;2022-08-19T06:51:13;12.43;;;8.35;;
36379;SDS011;22411;53.016;18.632;2022-08-19T06:53:45;8.75;;;7.43;;
36379;SDS011;22411;53.016;18.632;2022-08-19T06:56:15;9.07;;;8.00;;
36379;SDS011;22411;53.016;18.632;2022-08-19T06:58:46;10.02;;;8.02;;
36379;SDS011;22411;53.016;18.632;2022-08-19T07:01:18;9.65;;;7.63;;
36379;SDS011;22411;53.016;18.632;2022-08-19T07:03:45;10.82;;;8.20;;
36379;SDS011;22411;53.016;18.632;2022-08-19T07:06:14;7.85;;;7.05;;
36379;SDS011;22411;53.016;18.632;2022-08-19T07:08:46;8.43;;;7.60;;
36379;SDS011;22411;53.016;18.632;2022-08-19T07:13:43;9.48;;;7.60;;
36379;SDS011;22411;53.016;18.632;2022-08-19T07:16:15;9.48;;;7.40;;
36379;SDS011;22411;53.016;18.632;2022-08-19T07:18:43;7.60;;;6.80;;
36379;SDS011;22411;53.016;18.632;2022-08-19T07:21:11;8.23;;;6.28;;
36379;SDS011;22411;53.016;18.632;2022-08-19T07:23:41;7.10;;;6.40;;
36379;SDS011;22411;53.016;18.632;2022-08-19T07:26:09;9.88;;;6.60;;
36379;SDS011;22411;53.016;18.632;2022-08-19T07:28:47;9.02;;;7.45;;
36379;SDS011;22411;53.016;18.632;2022-08-19T07:31:19;13.82;;;7.38;;
36379;SDS011;22411;53.016;18.632;2022-08-19T07:33:48;7.45;;;5.97;;
36379;SDS011;22411;53.016;18.632;2022-08-19T07:36:16;7.57;;;6.80;;
36379;SDS011;22411;53.016;18.632;2022-08-19T07:38:45;7.30;;;5.80;;
36379;SDS011;22411;53.016;18.632;2022-08-19T07:41:15;8.38;;;5.68;;
36379;SDS011;22411;53.016;18.632;2022-08-19T07:43:46;7.05;;;5.57;;
36379;SDS011;22411;53.016;18.632;2022-08-19T07:46:13;9.98;;;6.03;;
36379;SDS011;22411;53.016;18.632;2022-08-19T07:48:40;6.88;;;6.13;;
36379;SDS011;22411;53.016;18.632;2022-08-19T07:51:08;8.05;;;6.15;;
36379;SDS011;22411;53.016;18.632;2022-08-19T07:53:36;8.43;;;5.95;;
36379;SDS011;22411;53.016;18.632;2022-08-19T07:56:03;7.38;;;6.63;;
36379;SDS011;22411;53.016;18.632;2022-08-19T07:58:32;13.15;;;9.20;;
36379;SDS011;22411;53.016;18.632;2022-08-19T08:01:00;8.40;;;5.95;;
36379;SDS011;22411;53.016;18.632;2022-08-19T08:03:26;7.38;;;6.15;;
36379;SDS011;22411;53.016;18.632;2022-08-19T08:06:15;6.93;;;5.25;;
36379;SDS011;22411;53.016;18.632;2022-08-19T08:09:02;9.40;;;6.28;;
36379;SDS011;22411;53.016;18.632;2022-08-19T08:11:43;6.43;;;5.63;;
36379;SDS011;22411;53.016;18.632;2022-08-19T08:14:36;6.82;;;5.55;;
36379;SDS011;22411;53.016;18.632;2022-08-19T08:17:05;6.03;;;5.22;;
36379;SDS011;22411;53.016;18.632;2022-08-19T08:19:32;7.18;;;5.40;;
36379;SDS011;22411;53.016;18.632;2022-08-19T08:21:59;11.75;;;5.35;;
36379;SDS011;22411;53.016;18.632;2022-08-19T08:24:27;7.63;;;5.43;;
36379;SDS011;22411;53.016;18.632;2022-08-19T08:26:57;8.27;;;6.20;;
36379;SDS011;22411;53.016;18.632;2022-08-19T08:29:25;6.32;;;5.72;;
36379;SDS011;22411;53.016;18.632;2022-08-19T08:31:55;7.53;;;5.30;;
36379;SDS011;22411;53.016;18.632;2022-08-19T08:34:25;9.93;;;5.57;;
36379;SDS011;22411;53.016;18.632;2022-08-19T08:36:51;8.48;;;4.95;;
36379;SDS011;22411;53.016;18.632;2022-08-19T08:39:19;6.97;;;5.00;;
36379;SDS011;22411;53.016;18.632;2022-08-19T08:47:02;8.73;;;5.43;;
36379;SDS011;22411;53.016;18.632;2022-08-19T08:49:41;6.03;;;4.22;;
36379;SDS011;22411;53.016;18.632;2022-08-19T08:52:18;7.97;;;4.18;;
36379;SDS011;22411;53.016;18.632;2022-08-19T08:54:53;12.10;;;4.28;;
36379;SDS011;22411;53.016;18.632;2022-08-19T08:57:32;7.72;;;4.18;;
36379;SDS011;22411;53.016;18.632;2022-08-19T09:00:04;6.40;;;4.25;;
36379;SDS011;22411;53.016;18.632;2022-08-19T09:02:33;5.43;;;3.55;;
36379;SDS011;22411;53.016;18.632;2022-08-19T09:04:59;7.90;;;3.95;;
36379;SDS011;22411;53.016;18.632;2022-08-19T09:10:10;5.50;;;4.18;;
36379;SDS011;22411;53.016;18.632;2022-08-19T09:15:28;5.53;;;4.85;;
36379;SDS011;22411;53.016;18.632;2022-08-19T09:18:01;7.32;;;4.68;;
36379;SDS011;22411;53.016;18.632;2022-08-19T09:20:29;6.65;;;4.30;;
36379;SDS011;22411;53.016;18.632;2022-08-19T09:22:56;8.52;;;4.45;;
36379;SDS011;22411;53.016;18.632;2022-08-19T09:25:24;5.43;;;3.88;;
36379;SDS011;22411;53.016;18.632;2022-08-19T09:27:51;9.68;;;4.07;;
36379;SDS011;22411;53.016;18.632;2022-08-19T09:30:20;6.25;;;4.38;;
36379;SDS011;22411;53.016;18.632;2022-08-19T09:32:51;5.40;;;4.35;;
36379;SDS011;22411;53.016;18.632;2022-08-19T09:35:23;6.95;;;4.25;;
36379;SDS011;22411;53.016;18.632;2022-08-19T09:37:51;6.13;;;5.07;;
36379;SDS011;22411;53.016;18.632;2022-08-19T09:40:18;9.25;;;4.85;;
36379;SDS011;22411;53.016;18.632;2022-08-19T09:42:45;6.93;;;4.72;;
36379;SDS011;22411;53.016;18.632;2022-08-19T09:45:13;7.13;;;4.65;;
36379;SDS011;22411;53.016;18.632;2022-08-19T09:47:41;8.07;;;4.50;;
36379;SDS011;22411;53.016;18.632;2022-08-19T09:50:09;5.93;;;4.80;;
36379;SDS011;22411;53.016;18.632;2022-08-19T09:52:37;6.03;;;4.25;;
36379;SDS011;22411;53.016;18.632;2022-08-19T09:55:07;9.45;;;5.07;;
36379;SDS011;22411;53.016;18.632;2022-08-19T09:57:34;7.65;;;4.07;;
36379;SDS011;22411;53.016;18.632;2022-08-19T10:00:02;4.72;;;4.18;;
36379;SDS011;22411;53.016;18.632;2022-08-19T10:02:30;6.57;;;4.60;;
36379;SDS011;22411;53.016;18.632;2022-08-19T10:04:56;5.93;;;4.75;;
36379;SDS011;22411;53.016;18.632;2022-08-19T10:07:42;8.93;;;4.30;;
36379;SDS011;22411;53.016;18.632;2022-08-19T10:10:08;6.68;;;4.22;;
36379;SDS011;22411;53.016;18.632;2022-08-19T10:12:35;7.50;;;5.28;;
36379;SDS011;22411;53.016;18.632;2022-08-19T10:15:02;6.30;;;4.75;;
36379;SDS011;22411;53.016;18.632;2022-08-19T10:17:31;9.82;;;5.07;;
36379;SDS011;22411;53.016;18.632;2022-08-19T10:19:59;7.80;;;4.93;;
36379;SDS011;22411;53.016;18.632;2022-08-19T10:22:25;6.03;;;5.53;;
36379;SDS011;22411;53.016;18.632;2022-08-19T10:24:51;5.63;;;5.10;;
36379;SDS011;22411;53.016;18.632;2022-08-19T10:27:17;6.53;;;4.95;;
36379;SDS011;22411;53.016;18.632;2022-08-19T10:29:43;6.68;;;4.55;;
36379;SDS011;22411;53.016;18.632;2022-08-19T10:32:09;5.43;;;4.90;;
36379;SDS011;22411;53.016;18.632;2022-08-19T10:34:36;7.35;;;4.63;;
36379;SDS011;22411;53.016;18.632;2022-08-19T10:37:04;6.00;;;4.95;;
36379;SDS011;22411;53.016;18.632;2022-08-19T10:39:32;5.00;;;4.53;;
36379;SDS011;22411;53.016;18.632;2022-08-19T10:42:04;5.07;;;4.25;;
36379;SDS011;22411;53.016;18.632;2022-08-19T10:44:32;8.23;;;5.32;;
36379;SDS011;22411;53.016;18.632;2022-08-19T10:47:00;6.60;;;4.25;;
36379;SDS011;22411;53.016;18.632;2022-08-19T10:49:27;6.72;;;4.53;;
36379;SDS011;22411;53.016;18.632;2022-08-19T10:51:54;8.48;;;4.60;;
36379;SDS011;22411;53.016;18.632;2022-08-19T10:54:41;10.32;;;5.00;;
36379;SDS011;22411;53.016;18.632;2022-08-19T10:57:29;7.65;;;4.47;;
36379;SDS011;22411;53.016;18.632;2022-08-19T10:59:56;6.70;;;4.78;;
36379;SDS011;22411;53.016;18.632;2022-08-19T11:02:22;8.30;;;4.80;;
36379;SDS011;22411;53.016;18.632;2022-08-19T11:04:49;8.00;;;4.65;;
36379;SDS011;22411;53.016;18.632;2022-08-19T11:07:16;6.10;;;4.93;;
36379;SDS011;22411;53.016;18.632;2022-08-19T11:09:42;5.25;;;4.75;;
36379;SDS011;22411;53.016;18.632;2022-08-19T11:12:09;5.50;;;4.55;;
36379;SDS011;22411;53.016;18.632;2022-08-19T11:14:38;8.15;;;4.30;;
36379;SDS011;22411;53.016;18.632;2022-08-19T11:17:05;5.45;;;4.78;;
36379;SDS011;22411;53.016;18.632;2022-08-19T11:19:32;5.70;;;4.38;;
36379;SDS011;22411;53.016;18.632;2022-08-19T11:21:58;5.28;;;4.78;;
36379;SDS011;22411;53.016;18.632;2022-08-19T11:24:27;6.60;;;4.63;;
36379;SDS011;22411;53.016;18.632;2022-08-19T11:26:54;6.80;;;4.65;;
36379;SDS011;22411;53.016;18.632;2022-08-19T11:29:26;7.47;;;4.18;;
36379;SDS011;22411;53.016;18.632;2022-08-19T11:31:53;7.80;;;4.63;;
36379;SDS011;22411;53.016;18.632;2022-08-19T11:34:20;5.28;;;4.38;;
36379;SDS011;22411;53.016;18.632;2022-08-19T11:36:48;7.60;;;4.53;;
36379;SDS011;22411;53.016;18.632;2022-08-19T11:39:17;6.45;;;4.18;;
36379;SDS011;22411;53.016;18.632;2022-08-19T11:41:46;9.00;;;4.80;;
36379;SDS011;22411;53.016;18.632;2022-08-19T11:44:12;7.47;;;4.93;;
36379;SDS011;22411;53.016;18.632;2022-08-19T11:46:40;8.40;;;4.75;;
36379;SDS011;22411;53.016;18.632;2022-08-19T11:49:11;8.13;;;4.25;;
36379;SDS011;22411;53.016;18.632;2022-08-19T11:51:42;6.28;;;4.35;;
36379;SDS011;22411;53.016;18.632;2022-08-19T11:54:08;6.32;;;4.00;;
36379;SDS011;22411;53.016;18.632;2022-08-19T11:56:36;6.72;;;4.15;;
36379;SDS011;22411;53.016;18.632;2022-08-19T11:59:03;5.22;;;3.72;;
36379;SDS011;22411;53.016;18.632;2022-08-19T12:01:29;9.55;;;4.15;;
36379;SDS011;22411;53.016;18.632;2022-08-19T12:03:58;4.97;;;3.72;;
36379;SDS011;22411;53.016;18.632;2022-08-19T12:06:26;6.68;;;4.32;;
36379;SDS011;22411;53.016;18.632;2022-08-19T12:08:55;5.37;;;4.47;;
36379;SDS011;22411;53.016;18.632;2022-08-19T12:11:22;6.47;;;4.38;;
36379;SDS011;22411;53.016;18.632;2022-08-19T12:13:49;4.65;;;3.83;;
36379;SDS011;22411;53.016;18.632;2022-08-19T12:16:20;4.35;;;3.95;;
36379;SDS011;22411;53.016;18.632;2022-08-19T12:18:49;5.28;;;4.22;;
36379;SDS011;22411;53.016;18.632;2022-08-19T12:21:18;8.95;;;4.47;;
36379;SDS011;22411;53.016;18.632;2022-08-19T12:23:47;6.18;;;4.22;;
36379;SDS011;22411;53.016;18.632;2022-08-19T12:26:15;7.13;;;4.28;;
36379;SDS011;22411;53.016;18.632;2022-08-19T12:28:42;6.82;;;3.88;;
36379;SDS011;22411;53.016;18.632;2022-08-19T12:31:09;4.60;;;3.72;;
36379;SDS011;22411;53.016;18.632;2022-08-19T12:33:39;5.20;;;3.50;;
36379;SDS011;22411;53.016;18.632;2022-08-19T12:36:07;10.10;;;3.17;;
36379;SDS011;22411;53.016;18.632;2022-08-19T12:38:36;6.93;;;3.67;;
36379;SDS011;22411;53.016;18.632;2022-08-19T12:41:03;4.97;;;3.15;;
36379;SDS011;22411;53.016;18.632;2022-08-19T12:43:33;8.27;;;4.03;;
36379;SDS011;22411;53.016;18.632;2022-08-19T12:46:00;5.97;;;3.28;;
36379;SDS011;22411;53.016;18.632;2022-08-19T12:48:28;7.03;;;3.88;;
36379;SDS011;22411;53.016;18.632;2022-08-19T12:50:54;5.45;;;3.33;;
36379;SDS011;22411;53.016;18.632;2022-08-19T12:53:20;9.80;;;3.97;;
36379;SDS011;22411;53.016;18.632;2022-08-19T12:55:46;8.18;;;4.20;;
36379;SDS011;22411;53.016;18.632;2022-08-19T12:58:15;7.63;;;3.70;;
36379;SDS011;22411;53.016;18.632;2022-08-19T13:00:42;7.50;;;4.03;;
36379;SDS011;22411;53.016;18.632;2022-08-19T13:03:08;6.53;;;4.00;;
36379;SDS011;22411;53.016;18.632;2022-08-19T13:05:34;7.38;;;4.40;;
36379;SDS011;22411;53.016;18.632;2022-08-19T13:08:01;7.78;;;4.28;;
36379;SDS011;22411;53.016;18.632;2022-08-19T13:10:28;6.40;;;4.30;;
36379;SDS011;22411;53.016;18.632;2022-08-19T13:13:00;11.20;;;4.95;;
36379;SDS011;22411;53.016;18.632;2022-08-19T13:15:36;7.93;;;3.88;;
36379;SDS011;22411;53.016;18.632;2022-08-19T13:20:32;7.85;;;4.13;;
36379;SDS011;22411;53.016;18.632;2022-08-19T13:22:58;7.25;;;4.03;;
36379;SDS011;22411;53.016;18.632;2022-08-19T13:25:25;7.25;;;4.75;;
36379;SDS011;22411;53.016;18.632;2022-08-19T13:27:52;8.07;;;4.05;;
36379;SDS011;22411;53.016;18.632;2022-08-19T13:30:19;7.30;;;3.85;;
36379;SDS011;22411;53.016;18.632;2022-08-19T13:33:04;4.97;;;3.90;;
36379;SDS011;22411;53.016;18.632;2022-08-19T13:35:37;5.72;;;3.30;;
36379;SDS011;22411;53.016;18.632;2022-08-19T13:38:04;10.00;;;3.58;;
36379;SDS011;22411;53.016;18.632;2022-08-19T13:40:31;7.85;;;3.65;;
36379;SDS011;22411;53.016;18.632;2022-08-19T13:42:59;6.50;;;4.10;;
36379;SDS011;22411;53.016;18.632;2022-08-19T13:45:27;5.88;;;3.88;;
36379;SDS011;22411;53.016;18.632;2022-08-19T13:47:57;7.97;;;4.18;;
36379;SDS011;22411;53.016;18.632;2022-08-19T13:50:24;6.40;;;3.80;;
36379;SDS011;22411;53.016;18.632;2022-08-19T13:52:52;8.27;;;4.03;;
36379;SDS011;22411;53.016;18.632;2022-08-19T13:55:19;6.53;;;3.97;;
36379;SDS011;22411;53.016;18.632;2022-08-19T13:57:49;5.75;;;3.67;;
36379;SDS011;22411;53.016;18.632;2022-08-19T14:00:17;6.72;;;3.90;;
36379;SDS011;22411;53.016;18.632;2022-08-19T14:02:44;7.28;;;3.95;;
36379;SDS011;22411;53.016;18.632;2022-08-19T14:05:14;8.52;;;4.70;;
36379;SDS011;22411;53.016;18.632;2022-08-19T14:07:41;10.73;;;4.05;;
36379;SDS011;22411;53.016;18.632;2022-08-19T14:10:08;9.02;;;4.38;;
36379;SDS011;22411;53.016;18.632;2022-08-19T14:12:36;9.85;;;4.10;;
36379;SDS011;22411;53.016;18.632;2022-08-19T14:15:03;9.48;;;4.70;;
36379;SDS011;22411;53.016;18.632;2022-08-19T14:17:30;6.60;;;3.75;;
36379;SDS011;22411;53.016;18.632;2022-08-19T14:19:57;5.30;;;4.53;;
36379;SDS011;22411;53.016;18.632;2022-08-19T14:22:27;7.10;;;4.25;;
36379;SDS011;22411;53.016;18.632;2022-08-19T14:24:53;9.50;;;5.60;;
36379;SDS011;22411;53.016;18.632;2022-08-19T14:27:19;6.97;;;4.47;;
36379;SDS011;22411;53.016;18.632;2022-08-19T14:29:45;7.53;;;4.45;;
36379;SDS011;22411;53.016;18.632;2022-08-19T14:32:12;11.77;;;4.38;;
36379;SDS011;22411;53.016;18.632;2022-08-19T14:34:38;8.18;;;3.78;;
36379;SDS011;22411;53.016;18.632;2022-08-19T14:37:04;6.57;;;3.97;;
36379;SDS011;22411;53.016;18.632;2022-08-19T14:39:31;7.13;;;4.15;;
36379;SDS011;22411;53.016;18.632;2022-08-19T14:41:57;7.03;;;4.22;;
36379;SDS011;22411;53.016;18.632;2022-08-19T14:44:23;6.15;;;4.25;;
36379;SDS011;22411;53.016;18.632;2022-08-19T14:46:49;7.70;;;4.00;;
36379;SDS011;22411;53.016;18.632;2022-08-19T14:49:16;9.40;;;4.80;;